sensor_id;sensor_type;location;lat;lon;timestamp;P1;durP1;ratioP1;P2;durP2;ratioP2
44197;SDS011;30157;55.512;37.764;2022-09-20T00:01:01;2.95;;;1.23;;
44197;SDS011;30157;55.512;37.764;2022-09-20T00:03:34;2.80;;;1.00;;
44197;SDS011;30157;55.512;37.764;2022-09-20T00:06:01;1.77;;;1.15;;
44197;SDS011;30157;55.512;37.764;2022-09-20T00:08:28;2.75;;;1.10;;
44197;SDS011;30157;55.512;37.764;2022-09-20T00:11:00;1.52;;;1.02;;
44197;SDS011;30157;55.512;37.764;2022-09-20T00:13:29;2.83;;;1.00;;
44197;SDS011;30157;55.512;37.764;2022-09-20T00:15:55;1.52;;;1.10;;
44197;SDS011;30157;55.512;37.764;2022-09-20T00:18:21;2.38;;;1.05;;
44197;SDS011;30157;55.512;37.764;2022-09-20T00:20:47;1.30;;;1.00;;
44197;SDS011;30157;55.512;37.764;2022-09-20T00:23:14;2.85;;;1.10;;
44197;SDS011;30157;55.512;37.764;2022-09-20T00:25:41;3.70;;;1.10;;
44197;SDS011;30157;55.512;37.764;2022-09-20T00:28:07;1.80;;;1.10;;
44197;SDS011;30157;55.512;37.764;2022-09-20T00:30:35;2.20;;;0.98;;
44197;SDS011;30157;55.512;37.764;2022-09-20T00:33:01;2.10;;;1.10;;
44197;SDS011;30157;55.512;37.764;2022-09-20T00:35:27;1.52;;;1.05;;
44197;SDS011;30157;55.512;37.764;2022-09-20T00:37:54;1.63;;;1.02;;
44197;SDS011;30157;55.512;37.764;2022-09-20T00:40:21;1.40;;;1.00;;
44197;SDS011;30157;55.512;37.764;2022-09-20T00:42:48;1.60;;;1.20;;
44197;SDS011;30157;55.512;37.764;2022-09-20T00:45:26;1.52;;;1.05;;
44197;SDS011;30157;55.512;37.764;2022-09-20T00:48:14;2.55;;;1.30;;
44197;SDS011;30157;55.512;37.764;2022-09-20T00:50:48;1.85;;;1.08;;
44197;SDS011;30157;55.512;37.764;2022-09-20T00:53:19;1.85;;;1.00;;
44197;SDS011;30157;55.512;37.764;2022-09-20T00:55:58;1.90;;;1.20;;
44197;SDS011;30157;55.512;37.764;2022-09-20T00:58:32;2.83;;;1.20;;
44197;SDS011;30157;55.512;37.764;2022-09-20T01:01:02;1.75;;;1.20;;
44197;SDS011;30157;55.512;37.764;2022-09-20T01:03:29;2.63;;;1.20;;
44197;SDS011;30157;55.512;37.764;2022-09-20T01:05:58;2.75;;;1.30;;
44197;SDS011;30157;55.512;37.764;2022-09-20T01:08:26;1.60;;;1.30;;
44197;SDS011;30157;55.512;37.764;2022-09-20T01:10:52;1.80;;;1.27;;
44197;SDS011;30157;55.512;37.764;2022-09-20T01:13:18;2.00;;;1.15;;
44197;SDS011;30157;55.512;37.764;2022-09-20T01:15:44;3.58;;;1.27;;
44197;SDS011;30157;55.512;37.764;2022-09-20T01:18:12;1.52;;;1.10;;
44197;SDS011;30157;55.512;37.764;2022-09-20T01:20:40;2.85;;;1.25;;
44197;SDS011;30157;55.512;37.764;2022-09-20T01:28:33;1.42;;;1.10;;
44197;SDS011;30157;55.512;37.764;2022-09-20T01:36:06;1.98;;;1.00;;
44197;SDS011;30157;55.512;37.764;2022-09-20T01:38:43;1.67;;;1.10;;
44197;SDS011;30157;55.512;37.764;2022-09-20T01:41:32;2.80;;;1.17;;
44197;SDS011;30157;55.512;37.764;2022-09-20T01:46:33;2.42;;;1.30;;
44197;SDS011;30157;55.512;37.764;2022-09-20T01:57:45;4.75;;;2.55;;
44197;SDS011;30157;55.512;37.764;2022-09-20T02:14:49;2.17;;;1.30;;
44197;SDS011;30157;55.512;37.764;2022-09-20T02:20:32;1.40;;;1.05;;
44197;SDS011;30157;55.512;37.764;2022-09-20T02:31:29;2.80;;;1.25;;
44197;SDS011;30157;55.512;37.764;2022-09-20T02:42:19;2.15;;;1.10;;
44197;SDS011;30157;55.512;37.764;2022-09-20T02:44:51;1.42;;;1.13;;
44197;SDS011;30157;55.512;37.764;2022-09-20T03:01:10;4.13;;;1.55;;
44197;SDS011;30157;55.512;37.764;2022-09-20T03:03:49;2.85;;;1.20;;
44197;SDS011;30157;55.512;37.764;2022-09-20T03:14:39;1.85;;;1.30;;
44197;SDS011;30157;55.512;37.764;2022-09-20T03:18:10;2.00;;;1.20;;
44197;SDS011;30157;55.512;37.764;2022-09-20T04:03:42;1.88;;;1.38;;
44197;SDS011;30157;55.512;37.764;2022-09-20T04:06:25;2.28;;;1.40;;
44197;SDS011;30157;55.512;37.764;2022-09-20T04:23:53;3.28;;;1.35;;
44197;SDS011;30157;55.512;37.764;2022-09-20T04:26:27;2.70;;;1.20;;
44197;SDS011;30157;55.512;37.764;2022-09-20T04:28:59;1.90;;;1.30;;
44197;SDS011;30157;55.512;37.764;2022-09-20T04:31:41;3.70;;;1.20;;
44197;SDS011;30157;55.512;37.764;2022-09-20T04:34:33;2.30;;;1.30;;
44197;SDS011;30157;55.512;37.764;2022-09-20T04:37:28;2.05;;;1.42;;
44197;SDS011;30157;55.512;37.764;2022-09-20T04:40:07;2.45;;;1.20;;
44197;SDS011;30157;55.512;37.764;2022-09-20T04:45:46;2.95;;;1.20;;
44197;SDS011;30157;55.512;37.764;2022-09-20T04:54:07;2.53;;;1.40;;
44197;SDS011;30157;55.512;37.764;2022-09-20T05:22:48;2.03;;;1.40;;
44197;SDS011;30157;55.512;37.764;2022-09-20T05:31:00;3.45;;;1.45;;
44197;SDS011;30157;55.512;37.764;2022-09-20T05:36:35;8.65;;;1.70;;
44197;SDS011;30157;55.512;37.764;2022-09-20T05:41:46;2.95;;;1.58;;
44197;SDS011;30157;55.512;37.764;2022-09-20T05:49:31;2.92;;;1.50;;
44197;SDS011;30157;55.512;37.764;2022-09-20T05:52:11;3.78;;;1.52;;
44197;SDS011;30157;55.512;37.764;2022-09-20T05:57:52;4.15;;;2.15;;
44197;SDS011;30157;55.512;37.764;2022-09-20T06:00:21;2.70;;;1.92;;
44197;SDS011;30157;55.512;37.764;2022-09-20T06:02:55;1.98;;;1.50;;
44197;SDS011;30157;55.512;37.764;2022-09-20T06:22:04;4.72;;;1.50;;
44197;SDS011;30157;55.512;37.764;2022-09-20T06:24:45;6.35;;;1.80;;
44197;SDS011;30157;55.512;37.764;2022-09-20T06:27:39;4.03;;;1.30;;
44197;SDS011;30157;55.512;37.764;2022-09-20T06:30:20;2.05;;;1.60;;
44197;SDS011;30157;55.512;37.764;2022-09-20T06:35:34;2.17;;;1.50;;
44197;SDS011;30157;55.512;37.764;2022-09-20T06:38:30;2.78;;;1.35;;
44197;SDS011;30157;55.512;37.764;2022-09-20T06:41:28;2.13;;;1.40;;
44197;SDS011;30157;55.512;37.764;2022-09-20T06:44:02;4.20;;;1.80;;
44197;SDS011;30157;55.512;37.764;2022-09-20T06:46:29;7.22;;;2.03;;
44197;SDS011;30157;55.512;37.764;2022-09-20T06:48:57;4.97;;;1.80;;
44197;SDS011;30157;55.512;37.764;2022-09-20T06:51:23;2.55;;;1.27;;
44197;SDS011;30157;55.512;37.764;2022-09-20T06:53:51;2.10;;;1.33;;
44197;SDS011;30157;55.512;37.764;2022-09-20T06:56:19;2.33;;;1.50;;
44197;SDS011;30157;55.512;37.764;2022-09-20T06:58:49;3.00;;;1.63;;
44197;SDS011;30157;55.512;37.764;2022-09-20T07:01:17;5.25;;;1.50;;
44197;SDS011;30157;55.512;37.764;2022-09-20T07:03:43;6.60;;;1.48;;
44197;SDS011;30157;55.512;37.764;2022-09-20T07:06:09;4.25;;;1.30;;
44197;SDS011;30157;55.512;37.764;2022-09-20T07:08:35;3.42;;;1.40;;
44197;SDS011;30157;55.512;37.764;2022-09-20T07:11:04;2.42;;;1.30;;
44197;SDS011;30157;55.512;37.764;2022-09-20T07:13:33;3.97;;;1.58;;
44197;SDS011;30157;55.512;37.764;2022-09-20T07:16:09;3.40;;;1.30;;
44197;SDS011;30157;55.512;37.764;2022-09-20T07:18:37;4.35;;;1.30;;
44197;SDS011;30157;55.512;37.764;2022-09-20T07:21:06;1.80;;;1.30;;
44197;SDS011;30157;55.512;37.764;2022-09-20T07:23:35;2.15;;;1.50;;
44197;SDS011;30157;55.512;37.764;2022-09-20T07:26:00;1.88;;;1.00;;
44197;SDS011;30157;55.512;37.764;2022-09-20T07:28:33;2.28;;;1.50;;
44197;SDS011;30157;55.512;37.764;2022-09-20T07:30:59;3.30;;;1.60;;
44197;SDS011;30157;55.512;37.764;2022-09-20T07:33:25;2.75;;;1.35;;
44197;SDS011;30157;55.512;37.764;2022-09-20T07:35:52;1.80;;;1.30;;
44197;SDS011;30157;55.512;37.764;2022-09-20T07:38:19;6.13;;;1.40;;
44197;SDS011;30157;55.512;37.764;2022-09-20T07:40:52;2.08;;;1.17;;
44197;SDS011;30157;55.512;37.764;2022-09-20T07:43:19;1.60;;;1.20;;
44197;SDS011;30157;55.512;37.764;2022-09-20T07:45:48;2.40;;;1.38;;
44197;SDS011;30157;55.512;37.764;2022-09-20T07:48:22;5.13;;;1.40;;
44197;SDS011;30157;55.512;37.764;2022-09-20T07:50:50;2.72;;;1.40;;
44197;SDS011;30157;55.512;37.764;2022-09-20T07:53:18;6.82;;;1.50;;
44197;SDS011;30157;55.512;37.764;2022-09-20T07:55:54;2.47;;;1.30;;
44197;SDS011;30157;55.512;37.764;2022-09-20T07:58:21;1.60;;;1.10;;
44197;SDS011;30157;55.512;37.764;2022-09-20T08:00:51;5.18;;;1.45;;
44197;SDS011;30157;55.512;37.764;2022-09-20T08:03:22;2.63;;;1.40;;
44197;SDS011;30157;55.512;37.764;2022-09-20T08:05:48;2.55;;;1.30;;
44197;SDS011;30157;55.512;37.764;2022-09-20T08:08:17;2.83;;;1.10;;
44197;SDS011;30157;55.512;37.764;2022-09-20T08:10:44;6.20;;;1.30;;
44197;SDS011;30157;55.512;37.764;2022-09-20T08:13:11;2.38;;;1.17;;
44197;SDS011;30157;55.512;37.764;2022-09-20T08:15:38;1.75;;;1.30;;
44197;SDS011;30157;55.512;37.764;2022-09-20T08:18:04;2.70;;;1.70;;
44197;SDS011;30157;55.512;37.764;2022-09-20T08:20:36;4.55;;;1.58;;
44197;SDS011;30157;55.512;37.764;2022-09-20T08:23:05;2.08;;;1.30;;
44197;SDS011;30157;55.512;37.764;2022-09-20T08:25:31;3.72;;;1.42;;
44197;SDS011;30157;55.512;37.764;2022-09-20T08:27:57;5.68;;;1.75;;
44197;SDS011;30157;55.512;37.764;2022-09-20T08:30:23;1.85;;;1.40;;
44197;SDS011;30157;55.512;37.764;2022-09-20T08:32:49;2.25;;;1.42;;
44197;SDS011;30157;55.512;37.764;2022-09-20T08:35:14;2.47;;;1.40;;
44197;SDS011;30157;55.512;37.764;2022-09-20T08:37:41;2.17;;;1.40;;
44197;SDS011;30157;55.512;37.764;2022-09-20T08:40:13;2.05;;;1.40;;
44197;SDS011;30157;55.512;37.764;2022-09-20T08:42:39;4.40;;;1.35;;
44197;SDS011;30157;55.512;37.764;2022-09-20T08:45:16;3.13;;;1.60;;
44197;SDS011;30157;55.512;37.764;2022-09-20T08:47:47;3.28;;;1.42;;
44197;SDS011;30157;55.512;37.764;2022-09-20T08:50:17;5.28;;;1.45;;
44197;SDS011;30157;55.512;37.764;2022-09-20T08:52:45;4.57;;;1.33;;
44197;SDS011;30157;55.512;37.764;2022-09-20T08:55:14;3.67;;;1.50;;
44197;SDS011;30157;55.512;37.764;2022-09-20T08:57:42;3.13;;;1.40;;
44197;SDS011;30157;55.512;37.764;2022-09-20T09:00:13;3.47;;;1.30;;
44197;SDS011;30157;55.512;37.764;2022-09-20T09:02:42;3.58;;;1.42;;
44197;SDS011;30157;55.512;37.764;2022-09-20T09:05:18;4.13;;;1.40;;
44197;SDS011;30157;55.512;37.764;2022-09-20T09:07:56;3.60;;;1.20;;
44197;SDS011;30157;55.512;37.764;2022-09-20T09:10:30;4.07;;;1.20;;
44197;SDS011;30157;55.512;37.764;2022-09-20T09:13:00;3.30;;;1.30;;
44197;SDS011;30157;55.512;37.764;2022-09-20T09:15:29;3.95;;;1.50;;
44197;SDS011;30157;55.512;37.764;2022-09-20T09:17:57;6.70;;;2.03;;
44197;SDS011;30157;55.512;37.764;2022-09-20T09:20:23;2.97;;;1.20;;
44197;SDS011;30157;55.512;37.764;2022-09-20T09:23:05;3.05;;;1.13;;
44197;SDS011;30157;55.512;37.764;2022-09-20T09:25:37;2.95;;;1.30;;
44197;SDS011;30157;55.512;37.764;2022-09-20T09:30:36;3.15;;;1.20;;
44197;SDS011;30157;55.512;37.764;2022-09-20T09:41:28;2.47;;;1.33;;
44197;SDS011;30157;55.512;37.764;2022-09-20T09:44:03;4.07;;;1.50;;
44197;SDS011;30157;55.512;37.764;2022-09-20T09:46:35;2.10;;;1.40;;
44197;SDS011;30157;55.512;37.764;2022-09-20T09:54:27;2.42;;;1.50;;
44197;SDS011;30157;55.512;37.764;2022-09-20T10:05:33;2.10;;;1.38;;
44197;SDS011;30157;55.512;37.764;2022-09-20T10:30:24;2.95;;;1.70;;
44197;SDS011;30157;55.512;37.764;2022-09-20T10:38:44;5.40;;;1.95;;
44197;SDS011;30157;55.512;37.764;2022-09-20T10:47:13;2.63;;;1.30;;
44197;SDS011;30157;55.512;37.764;2022-09-20T11:01:49;3.92;;;1.70;;
44197;SDS011;30157;55.512;37.764;2022-09-20T11:09:56;2.78;;;1.55;;
44197;SDS011;30157;55.512;37.764;2022-09-20T11:12:39;4.95;;;1.70;;
44197;SDS011;30157;55.512;37.764;2022-09-20T11:15:14;4.22;;;1.70;;
44197;SDS011;30157;55.512;37.764;2022-09-20T11:20:41;2.00;;;1.35;;
44197;SDS011;30157;55.512;37.764;2022-09-20T11:25:53;4.18;;;1.83;;
44197;SDS011;30157;55.512;37.764;2022-09-20T11:30:53;4.13;;;2.00;;
44197;SDS011;30157;55.512;37.764;2022-09-20T11:33:25;5.10;;;1.83;;
44197;SDS011;30157;55.512;37.764;2022-09-20T11:36:02;4.05;;;2.13;;
44197;SDS011;30157;55.512;37.764;2022-09-20T11:38:36;5.93;;;2.10;;
44197;SDS011;30157;55.512;37.764;2022-09-20T11:41:18;4.65;;;1.98;;
44197;SDS011;30157;55.512;37.764;2022-09-20T11:43:44;5.82;;;1.67;;
44197;SDS011;30157;55.512;37.764;2022-09-20T11:46:13;5.38;;;1.92;;
44197;SDS011;30157;55.512;37.764;2022-09-20T11:48:48;2.58;;;1.98;;
44197;SDS011;30157;55.512;37.764;2022-09-20T11:56:36;2.70;;;1.92;;
44197;SDS011;30157;55.512;37.764;2022-09-20T11:59:04;2.78;;;1.70;;
44197;SDS011;30157;55.512;37.764;2022-09-20T12:01:37;4.43;;;1.77;;
44197;SDS011;30157;55.512;37.764;2022-09-20T12:04:12;2.65;;;1.70;;
44197;SDS011;30157;55.512;37.764;2022-09-20T12:10:17;2.75;;;1.80;;
44197;SDS011;30157;55.512;37.764;2022-09-20T12:12:47;3.58;;;1.80;;
44197;SDS011;30157;55.512;37.764;2022-09-20T12:15:53;3.22;;;1.80;;
44197;SDS011;30157;55.512;37.764;2022-09-20T12:28:41;3.05;;;1.63;;
44197;SDS011;30157;55.512;37.764;2022-09-20T12:36:41;4.63;;;2.15;;
44197;SDS011;30157;55.512;37.764;2022-09-20T12:41:52;2.47;;;1.98;;
44197;SDS011;30157;55.512;37.764;2022-09-20T13:05:48;3.58;;;1.80;;
44197;SDS011;30157;55.512;37.764;2022-09-20T13:16:41;2.05;;;1.60;;
44197;SDS011;30157;55.512;37.764;2022-09-20T13:19:26;2.60;;;1.98;;
44197;SDS011;30157;55.512;37.764;2022-09-20T13:22:02;3.13;;;2.20;;
44197;SDS011;30157;55.512;37.764;2022-09-20T13:24:36;9.57;;;2.20;;
44197;SDS011;30157;55.512;37.764;2022-09-20T13:27:05;2.47;;;1.83;;
44197;SDS011;30157;55.512;37.764;2022-09-20T13:29:36;4.40;;;2.10;;
44197;SDS011;30157;55.512;37.764;2022-09-20T13:32:24;6.82;;;2.00;;
44197;SDS011;30157;55.512;37.764;2022-09-20T13:37:49;5.18;;;2.10;;
44197;SDS011;30157;55.512;37.764;2022-09-20T13:42:47;3.78;;;2.00;;
44197;SDS011;30157;55.512;37.764;2022-09-20T13:45:14;3.47;;;1.83;;
44197;SDS011;30157;55.512;37.764;2022-09-20T13:47:42;3.30;;;2.20;;
44197;SDS011;30157;55.512;37.764;2022-09-20T13:50:16;3.58;;;2.10;;
44197;SDS011;30157;55.512;37.764;2022-09-20T13:53:12;3.30;;;1.90;;
44197;SDS011;30157;55.512;37.764;2022-09-20T13:55:41;4.53;;;2.30;;
44197;SDS011;30157;55.512;37.764;2022-09-20T14:00:45;4.75;;;2.35;;
44197;SDS011;30157;55.512;37.764;2022-09-20T14:03:17;3.92;;;2.05;;
44197;SDS011;30157;55.512;37.764;2022-09-20T14:05:52;6.03;;;2.72;;
44197;SDS011;30157;55.512;37.764;2022-09-20T14:08:22;2.95;;;2.08;;
44197;SDS011;30157;55.512;37.764;2022-09-20T14:11:05;3.85;;;2.20;;
44197;SDS011;30157;55.512;37.764;2022-09-20T14:13:34;6.05;;;2.45;;
44197;SDS011;30157;55.512;37.764;2022-09-20T14:16:05;2.42;;;1.88;;
44197;SDS011;30157;55.512;37.764;2022-09-20T14:18:33;4.03;;;1.90;;
44197;SDS011;30157;55.512;37.764;2022-09-20T14:20:59;2.65;;;1.80;;
44197;SDS011;30157;55.512;37.764;2022-09-20T14:23:27;3.90;;;2.00;;
44197;SDS011;30157;55.512;37.764;2022-09-20T14:26:40;6.97;;;3.03;;
44197;SDS011;30157;55.512;37.764;2022-09-20T14:28:40;4.35;;;1.73;;
44197;SDS011;30157;55.512;37.764;2022-09-20T14:31:07;3.60;;;2.05;;
44197;SDS011;30157;55.512;37.764;2022-09-20T14:33:39;5.93;;;2.55;;
44197;SDS011;30157;55.512;37.764;2022-09-20T14:36:11;2.75;;;2.00;;
44197;SDS011;30157;55.512;37.764;2022-09-20T14:38:41;4.57;;;2.05;;
44197;SDS011;30157;55.512;37.764;2022-09-20T14:41:09;3.72;;;1.90;;
44197;SDS011;30157;55.512;37.764;2022-09-20T14:43:35;4.63;;;2.05;;
44197;SDS011;30157;55.512;37.764;2022-09-20T14:46:02;4.50;;;2.05;;
44197;SDS011;30157;55.512;37.764;2022-09-20T14:48:31;4.28;;;2.20;;
44197;SDS011;30157;55.512;37.764;2022-09-20T14:53:42;3.17;;;2.00;;
44197;SDS011;30157;55.512;37.764;2022-09-20T14:56:09;5.43;;;2.30;;
44197;SDS011;30157;55.512;37.764;2022-09-20T15:01:31;8.93;;;3.15;;
44197;SDS011;30157;55.512;37.764;2022-09-20T15:04:04;5.45;;;2.30;;
44197;SDS011;30157;55.512;37.764;2022-09-20T15:06:35;6.15;;;2.80;;
44197;SDS011;30157;55.512;37.764;2022-09-20T15:09:04;8.82;;;2.97;;
44197;SDS011;30157;55.512;37.764;2022-09-20T15:11:30;5.28;;;2.65;;
44197;SDS011;30157;55.512;37.764;2022-09-20T15:13:56;5.38;;;2.30;;
44197;SDS011;30157;55.512;37.764;2022-09-20T15:16:21;5.82;;;2.50;;
44197;SDS011;30157;55.512;37.764;2022-09-20T15:18:48;5.97;;;2.60;;
44197;SDS011;30157;55.512;37.764;2022-09-20T15:21:14;4.38;;;2.95;;
44197;SDS011;30157;55.512;37.764;2022-09-20T15:23:39;4.78;;;2.70;;
44197;SDS011;30157;55.512;37.764;2022-09-20T15:26:05;7.82;;;2.85;;
44197;SDS011;30157;55.512;37.764;2022-09-20T15:28:33;5.72;;;3.05;;
44197;SDS011;30157;55.512;37.764;2022-09-20T15:30:59;5.88;;;2.90;;
44197;SDS011;30157;55.512;37.764;2022-09-20T15:33:24;5.38;;;2.90;;
44197;SDS011;30157;55.512;37.764;2022-09-20T15:35:54;6.55;;;3.17;;
44197;SDS011;30157;55.512;37.764;2022-09-20T15:38:20;8.57;;;3.13;;
44197;SDS011;30157;55.512;37.764;2022-09-20T15:40:47;7.18;;;3.65;;
44197;SDS011;30157;55.512;37.764;2022-09-20T15:43:17;7.05;;;4.03;;
44197;SDS011;30157;55.512;37.764;2022-09-20T15:45:50;6.15;;;4.00;;
44197;SDS011;30157;55.512;37.764;2022-09-20T15:48:17;6.68;;;3.80;;
44197;SDS011;30157;55.512;37.764;2022-09-20T15:50:58;5.88;;;3.30;;
44197;SDS011;30157;55.512;37.764;2022-09-20T15:53:30;8.65;;;3.95;;
44197;SDS011;30157;55.512;37.764;2022-09-20T15:55:59;9.10;;;4.60;;
44197;SDS011;30157;55.512;37.764;2022-09-20T15:58:27;8.10;;;4.38;;
44197;SDS011;30157;55.512;37.764;2022-09-20T16:01:05;10.43;;;6.07;;
44197;SDS011;30157;55.512;37.764;2022-09-20T16:03:32;12.93;;;6.25;;
44197;SDS011;30157;55.512;37.764;2022-09-20T16:05:59;10.90;;;6.05;;
44197;SDS011;30157;55.512;37.764;2022-09-20T16:08:33;11.70;;;6.38;;
44197;SDS011;30157;55.512;37.764;2022-09-20T16:11:00;9.98;;;5.85;;
44197;SDS011;30157;55.512;37.764;2022-09-20T16:13:26;9.90;;;5.40;;
44197;SDS011;30157;55.512;37.764;2022-09-20T16:16:02;9.85;;;4.43;;
44197;SDS011;30157;55.512;37.764;2022-09-20T16:18:28;8.52;;;4.57;;
44197;SDS011;30157;55.512;37.764;2022-09-20T16:21:14;7.80;;;4.87;;
44197;SDS011;30157;55.512;37.764;2022-09-20T16:23:45;8.93;;;6.00;;
44197;SDS011;30157;55.512;37.764;2022-09-20T16:26:15;11.45;;;7.30;;
44197;SDS011;30157;55.512;37.764;2022-09-20T16:28:41;11.35;;;8.10;;
44197;SDS011;30157;55.512;37.764;2022-09-20T16:31:30;10.52;;;6.90;;
44197;SDS011;30157;55.512;37.764;2022-09-20T16:34:02;14.85;;;8.35;;
44197;SDS011;30157;55.512;37.764;2022-09-20T16:36:32;19.80;;;10.65;;
44197;SDS011;30157;55.512;37.764;2022-09-20T16:38:58;18.50;;;9.35;;
44197;SDS011;30157;55.512;37.764;2022-09-20T16:41:26;11.80;;;6.93;;
44197;SDS011;30157;55.512;37.764;2022-09-20T16:43:53;9.45;;;5.82;;
44197;SDS011;30157;55.512;37.764;2022-09-20T16:46:20;7.78;;;4.30;;
44197;SDS011;30157;55.512;37.764;2022-09-20T16:48:47;9.70;;;4.50;;
44197;SDS011;30157;55.512;37.764;2022-09-20T16:51:18;8.98;;;4.28;;
44197;SDS011;30157;55.512;37.764;2022-09-20T16:53:49;10.63;;;5.80;;
44197;SDS011;30157;55.512;37.764;2022-09-20T16:56:22;8.75;;;5.93;;
44197;SDS011;30157;55.512;37.764;2022-09-20T16:58:50;8.82;;;5.43;;
44197;SDS011;30157;55.512;37.764;2022-09-20T17:01:18;10.68;;;6.45;;
44197;SDS011;30157;55.512;37.764;2022-09-20T17:03:44;10.40;;;7.68;;
44197;SDS011;30157;55.512;37.764;2022-09-20T17:06:12;10.52;;;7.40;;
44197;SDS011;30157;55.512;37.764;2022-09-20T17:08:40;10.15;;;7.78;;
44197;SDS011;30157;55.512;37.764;2022-09-20T17:11:07;10.45;;;7.32;;
44197;SDS011;30157;55.512;37.764;2022-09-20T17:13:41;9.30;;;5.57;;
44197;SDS011;30157;55.512;37.764;2022-09-20T17:16:09;7.55;;;5.10;;
44197;SDS011;30157;55.512;37.764;2022-09-20T17:18:39;8.35;;;4.82;;
44197;SDS011;30157;55.512;37.764;2022-09-20T17:23:38;9.38;;;5.75;;
44197;SDS011;30157;55.512;37.764;2022-09-20T17:26:12;9.07;;;5.55;;
44197;SDS011;30157;55.512;37.764;2022-09-20T17:28:44;7.68;;;4.90;;
44197;SDS011;30157;55.512;37.764;2022-09-20T17:31:14;8.18;;;4.90;;
44197;SDS011;30157;55.512;37.764;2022-09-20T17:33:41;8.20;;;5.20;;
44197;SDS011;30157;55.512;37.764;2022-09-20T17:36:10;8.02;;;4.70;;
44197;SDS011;30157;55.512;37.764;2022-09-20T17:38:37;7.75;;;5.03;;
44197;SDS011;30157;55.512;37.764;2022-09-20T17:41:04;7.53;;;5.20;;
44197;SDS011;30157;55.512;37.764;2022-09-20T17:43:33;7.53;;;4.82;;
44197;SDS011;30157;55.512;37.764;2022-09-20T17:46:11;6.55;;;3.97;;
44197;SDS011;30157;55.512;37.764;2022-09-20T17:48:42;7.32;;;4.43;;
44197;SDS011;30157;55.512;37.764;2022-09-20T17:51:15;8.73;;;4.90;;
44197;SDS011;30157;55.512;37.764;2022-09-20T17:53:43;7.90;;;4.53;;
44197;SDS011;30157;55.512;37.764;2022-09-20T17:56:10;9.10;;;4.43;;
44197;SDS011;30157;55.512;37.764;2022-09-20T17:58:39;7.53;;;4.45;;
44197;SDS011;30157;55.512;37.764;2022-09-20T18:01:07;7.43;;;4.70;;
44197;SDS011;30157;55.512;37.764;2022-09-20T18:03:36;9.93;;;5.28;;
44197;SDS011;30157;55.512;37.764;2022-09-20T18:06:13;8.18;;;4.53;;
44197;SDS011;30157;55.512;37.764;2022-09-20T18:08:39;8.80;;;4.63;;
44197;SDS011;30157;55.512;37.764;2022-09-20T18:11:06;6.90;;;4.70;;
44197;SDS011;30157;55.512;37.764;2022-09-20T18:13:32;9.88;;;5.40;;
44197;SDS011;30157;55.512;37.764;2022-09-20T18:15:58;9.45;;;5.40;;
44197;SDS011;30157;55.512;37.764;2022-09-20T18:18:24;8.23;;;5.18;;
44197;SDS011;30157;55.512;37.764;2022-09-20T18:20:50;7.63;;;4.93;;
44197;SDS011;30157;55.512;37.764;2022-09-20T18:23:16;9.80;;;5.45;;
44197;SDS011;30157;55.512;37.764;2022-09-20T18:25:42;8.07;;;4.88;;
44197;SDS011;30157;55.512;37.764;2022-09-20T18:28:26;7.53;;;5.20;;
44197;SDS011;30157;55.512;37.764;2022-09-20T18:30:59;8.88;;;4.60;;
44197;SDS011;30157;55.512;37.764;2022-09-20T18:33:26;10.10;;;4.85;;
44197;SDS011;30157;55.512;37.764;2022-09-20T18:35:57;7.43;;;4.85;;
44197;SDS011;30157;55.512;37.764;2022-09-20T18:38:27;7.78;;;5.10;;
44197;SDS011;30157;55.512;37.764;2022-09-20T18:40:56;10.00;;;6.15;;
44197;SDS011;30157;55.512;37.764;2022-09-20T18:43:26;8.52;;;5.68;;
44197;SDS011;30157;55.512;37.764;2022-09-20T18:45:56;7.38;;;5.18;;
44197;SDS011;30157;55.512;37.764;2022-09-20T18:48:22;9.55;;;5.97;;
44197;SDS011;30157;55.512;37.764;2022-09-20T18:53:33;9.38;;;4.70;;
44197;SDS011;30157;55.512;37.764;2022-09-20T18:58:50;7.78;;;4.88;;
44197;SDS011;30157;55.512;37.764;2022-09-20T19:01:26;8.75;;;4.90;;
44197;SDS011;30157;55.512;37.764;2022-09-20T19:04:05;7.72;;;4.53;;
44197;SDS011;30157;55.512;37.764;2022-09-20T19:12:42;7.82;;;5.10;;
44197;SDS011;30157;55.512;37.764;2022-09-20T19:18:34;7.53;;;4.68;;
44197;SDS011;30157;55.512;37.764;2022-09-20T19:27:09;6.90;;;4.53;;
44197;SDS011;30157;55.512;37.764;2022-09-20T19:29:36;5.70;;;4.30;;
44197;SDS011;30157;55.512;37.764;2022-09-20T19:32:02;6.88;;;4.53;;
44197;SDS011;30157;55.512;37.764;2022-09-20T19:34:29;9.57;;;4.82;;
44197;SDS011;30157;55.512;37.764;2022-09-20T19:36:59;7.65;;;5.25;;
44197;SDS011;30157;55.512;37.764;2022-09-20T19:39:51;7.45;;;4.93;;
44197;SDS011;30157;55.512;37.764;2022-09-20T19:42:49;7.80;;;4.53;;
44197;SDS011;30157;55.512;37.764;2022-09-20T19:48:43;8.75;;;4.93;;
44197;SDS011;30157;55.512;37.764;2022-09-20T19:51:20;8.40;;;5.10;;
44197;SDS011;30157;55.512;37.764;2022-09-20T19:53:46;9.95;;;5.10;;
44197;SDS011;30157;55.512;37.764;2022-09-20T19:56:23;9.32;;;5.05;;
44197;SDS011;30157;55.512;37.764;2022-09-20T19:58:51;7.28;;;4.97;;
44197;SDS011;30157;55.512;37.764;2022-09-20T20:01:19;6.50;;;5.05;;
44197;SDS011;30157;55.512;37.764;2022-09-20T20:03:49;8.15;;;5.47;;
44197;SDS011;30157;55.512;37.764;2022-09-20T20:06:29;7.53;;;4.50;;
44197;SDS011;30157;55.512;37.764;2022-09-20T20:24:52;9.68;;;5.65;;
44197;SDS011;30157;55.512;37.764;2022-09-20T20:27:21;8.60;;;5.75;;
44197;SDS011;30157;55.512;37.764;2022-09-20T20:29:47;6.75;;;4.82;;
44197;SDS011;30157;55.512;37.764;2022-09-20T20:32:14;9.35;;;5.68;;
44197;SDS011;30157;55.512;37.764;2022-09-20T20:34:40;9.95;;;4.97;;
44197;SDS011;30157;55.512;37.764;2022-09-20T20:37:06;8.90;;;5.30;;
44197;SDS011;30157;55.512;37.764;2022-09-20T20:39:32;8.98;;;5.13;;
44197;SDS011;30157;55.512;37.764;2022-09-20T20:42:02;8.82;;;5.63;;
44197;SDS011;30157;55.512;37.764;2022-09-20T20:44:31;8.13;;;5.28;;
44197;SDS011;30157;55.512;37.764;2022-09-20T20:47:01;8.50;;;5.38;;
44197;SDS011;30157;55.512;37.764;2022-09-20T20:49:28;7.63;;;5.30;;
44197;SDS011;30157;55.512;37.764;2022-09-20T20:51:53;9.23;;;5.43;;
44197;SDS011;30157;55.512;37.764;2022-09-20T20:54:20;8.48;;;5.78;;
44197;SDS011;30157;55.512;37.764;2022-09-20T20:56:46;8.90;;;4.93;;
44197;SDS011;30157;55.512;37.764;2022-09-20T20:59:12;8.77;;;5.38;;
44197;SDS011;30157;55.512;37.764;2022-09-20T21:01:38;7.63;;;4.63;;
44197;SDS011;30157;55.512;37.764;2022-09-20T21:04:10;9.20;;;5.15;;
44197;SDS011;30157;55.512;37.764;2022-09-20T21:06:36;8.63;;;5.60;;
44197;SDS011;30157;55.512;37.764;2022-09-20T21:09:05;9.77;;;5.30;;
44197;SDS011;30157;55.512;37.764;2022-09-20T21:11:32;7.80;;;5.28;;
44197;SDS011;30157;55.512;37.764;2022-09-20T21:13:59;7.53;;;5.50;;
44197;SDS011;30157;55.512;37.764;2022-09-20T21:16:30;7.68;;;5.75;;
44197;SDS011;30157;55.512;37.764;2022-09-20T21:18:59;9.18;;;5.75;;
44197;SDS011;30157;55.512;37.764;2022-09-20T21:21:29;7.82;;;5.00;;
44197;SDS011;30157;55.512;37.764;2022-09-20T21:23:58;7.45;;;4.85;;
44197;SDS011;30157;55.512;37.764;2022-09-20T21:26:26;10.88;;;5.47;;
44197;SDS011;30157;55.512;37.764;2022-09-20T21:28:57;8.65;;;5.75;;
44197;SDS011;30157;55.512;37.764;2022-09-20T21:31:28;8.77;;;5.88;;
44197;SDS011;30157;55.512;37.764;2022-09-20T21:33:59;9.00;;;5.30;;
44197;SDS011;30157;55.512;37.764;2022-09-20T21:36:25;8.32;;;5.97;;
44197;SDS011;30157;55.512;37.764;2022-09-20T21:38:52;7.53;;;5.20;;
44197;SDS011;30157;55.512;37.764;2022-09-20T21:41:19;8.48;;;5.40;;
44197;SDS011;30157;55.512;37.764;2022-09-20T21:43:46;8.85;;;5.45;;